sensor_id;sensor_type;location;lat;lon;timestamp;pressure;altitude;pressure_sealevel;temperature;humidity
49801;BME280;35698;50.232;30.540;2023-05-02T00:00:04;101213.81;;;9.32;52.15
49801;BME280;35698;50.232;30.540;2023-05-02T00:01:25;101218.39;;;9.27;52.20
49801;BME280;35698;50.232;30.540;2023-05-02T00:02:36;101219.78;;;9.37;52.28
49801;BME280;35698;50.232;30.540;2023-05-02T00:03:40;101225.38;;;9.28;52.17
49801;BME280;35698;50.232;30.540;2023-05-02T00:05:01;101216.45;;;9.32;52.23
49801;BME280;35698;50.232;30.540;2023-05-02T00:06:08;101227.86;;;9.33;52.18
49801;BME280;35698;50.232;30.540;2023-05-02T00:07:11;101223.27;;;9.38;52.21
49801;BME280;35698;50.232;30.540;2023-05-02T00:08:22;101221.55;;;9.37;52.51
49801;BME280;35698;50.232;30.540;2023-05-02T00:09:26;101224.91;;;9.17;52.58
49801;BME280;35698;50.232;30.540;2023-05-02T00:10:47;101230.34;;;9.12;52.74
49801;BME280;35698;50.232;30.540;2023-05-02T00:11:50;101223.67;;;9.02;52.83
49801;BME280;35698;50.232;30.540;2023-05-02T00:13:02;101235.67;;;9.11;52.89
49801;BME280;35698;50.232;30.540;2023-05-02T00:14:05;101233.89;;;9.11;52.95
49801;BME280;35698;50.232;30.540;2023-05-02T00:15:26;101242.55;;;9.15;52.84
49801;BME280;35698;50.232;30.540;2023-05-02T00:16:38;101238.67;;;9.25;52.96
49801;BME280;35698;50.232;30.540;2023-05-02T00:17:41;101238.89;;;8.94;53.24
49801;BME280;35698;50.232;30.540;2023-05-02T00:19:03;101240.82;;;8.89;53.35
49801;BME280;35698;50.232;30.540;2023-05-02T00:20:14;101241.27;;;9.02;53.40
49801;BME280;35698;50.232;30.540;2023-05-02T00:21:17;101245.56;;;9.04;53.23
49801;BME280;35698;50.232;30.540;2023-05-02T00:22:39;101249.44;;;8.94;53.27
49801;BME280;35698;50.232;30.540;2023-05-02T00:23:50;101246.21;;;9.11;53.17
49801;BME280;35698;50.232;30.540;2023-05-02T00:24:56;101248.31;;;9.01;53.06
49801;BME280;35698;50.232;30.540;2023-05-02T00:26:18;101244.81;;;9.01;52.94
49801;BME280;35698;50.232;30.540;2023-05-02T00:27:29;101240.72;;;9.17;52.78
49801;BME280;35698;50.232;30.540;2023-05-02T00:28:33;101253.26;;;9.10;52.74
49801;BME280;35698;50.232;30.540;2023-05-02T00:29:36;101254.23;;;9.08;52.70
49801;BME280;35698;50.232;30.540;2023-05-02T00:30:47;101247.28;;;9.30;52.57
49801;BME280;35698;50.232;30.540;2023-05-02T00:31:51;101249.66;;;9.13;52.61
49801;BME280;35698;50.232;30.540;2023-05-02T00:33:02;101253.41;;;9.31;52.51
49801;BME280;35698;50.232;30.540;2023-05-02T00:34:06;101245.67;;;9.26;52.56
49801;BME280;35698;50.232;30.540;2023-05-02T00:35:09;101252.45;;;9.33;52.45
49801;BME280;35698;50.232;30.540;2023-05-02T00:36:21;101252.70;;;9.50;52.27
49801;BME280;35698;50.232;30.540;2023-05-02T00:37:27;101249.64;;;9.38;52.18
49801;BME280;35698;50.232;30.540;2023-05-02T00:38:30;101259.66;;;9.28;52.41
49801;BME280;35698;50.232;30.540;2023-05-02T00:39:34;101250.95;;;9.26;52.53
49801;BME280;35698;50.232;30.540;2023-05-02T00:40:48;101249.97;;;9.29;52.66
49801;BME280;35698;50.232;30.540;2023-05-02T00:41:58;101259.23;;;9.15;52.72
49801;BME280;35698;50.232;30.540;2023-05-02T00:43:09;101259.66;;;9.28;52.62
49801;BME280;35698;50.232;30.540;2023-05-02T00:44:13;101263.97;;;9.31;52.34
49801;BME280;35698;50.232;30.540;2023-05-02T00:45:16;101259.66;;;9.28;52.33
49801;BME280;35698;50.232;30.540;2023-05-02T00:46:27;101255.33;;;9.50;52.16
49801;BME280;35698;50.232;30.540;2023-05-02T00:47:30;101267.08;;;9.42;52.02
49801;BME280;35698;50.232;30.540;2023-05-02T00:48:34;101260.89;;;9.43;52.04
49801;BME280;35698;50.232;30.540;2023-05-02T00:49:52;101257.92;;;9.52;52.14
49801;BME280;35698;50.232;30.540;2023-05-02T00:50:55;101268.10;;;9.38;52.13
49801;BME280;35698;50.232;30.540;2023-05-02T00:52:07;101264.55;;;9.39;52.35
49801;BME280;35698;50.232;30.540;2023-05-02T00:53:10;101267.63;;;9.27;52.42
49801;BME280;35698;50.232;30.540;2023-05-02T00:54:24;101261.91;;;9.39;52.45
49801;BME280;35698;50.232;30.540;2023-05-02T00:55:28;101261.59;;;9.23;52.43
49801;BME280;35698;50.232;30.540;2023-05-02T00:56:39;101259.50;;;9.33;52.59
49801;BME280;35698;50.232;30.540;2023-05-02T00:57:43;101264.40;;;9.18;52.66
49801;BME280;35698;50.232;30.540;2023-05-02T00:58:54;101266.81;;;9.25;52.82
49801;BME280;35698;50.232;30.540;2023-05-02T00:59:57;101266.49;;;9.09;52.93
49801;BME280;35698;50.232;30.540;2023-05-02T01:05:14;101283.98;;;9.11;53.33
49801;BME280;35698;50.232;30.540;2023-05-02T01:10:51;101271.22;;;8.99;53.60
49801;BME280;35698;50.232;30.540;2023-05-02T01:13:23;101274.50;;;9.06;53.05
49801;BME280;35698;50.232;30.540;2023-05-02T01:14:35;101270.56;;;8.93;53.05
49801;BME280;35698;50.232;30.540;2023-05-02T01:15:52;101279.98;;;9.00;53.33
49801;BME280;35698;50.232;30.540;2023-05-02T01:17:01;101279.64;;;8.84;53.38
49801;BME280;35698;50.232;30.540;2023-05-02T01:18:08;101269.00;;;8.87;53.26
49801;BME280;35698;50.232;30.540;2023-05-02T01:19:25;101273.20;;;8.93;53.33
49801;BME280;35698;50.232;30.540;2023-05-02T01:20:59;101274.16;;;8.90;53.35
49801;BME280;35698;50.232;30.540;2023-05-02T01:22:21;101275.34;;;8.81;53.38
49801;BME280;35698;50.232;30.540;2023-05-02T01:25:47;101278.47;;;8.93;53.21
49801;BME280;35698;50.232;30.540;2023-05-02T01:30:10;101283.03;;;8.87;53.90
49801;BME280;35698;50.232;30.540;2023-05-02T01:31:34;101285.11;;;8.78;53.78
49801;BME280;35698;50.232;30.540;2023-05-02T01:32:47;101284.50;;;8.96;53.63
49801;BME280;35698;50.232;30.540;2023-05-02T01:34:11;101279.59;;;8.85;53.25
49801;BME280;35698;50.232;30.540;2023-05-02T01:35:23;101282.62;;;9.00;53.07
49801;BME280;35698;50.232;30.540;2023-05-02T01:36:47;101285.62;;;8.89;52.95
49801;BME280;35698;50.232;30.540;2023-05-02T01:37:53;101283.95;;;8.86;52.97
49801;BME280;35698;50.232;30.540;2023-05-02T01:39:23;101290.18;;;8.84;53.01
49801;BME280;35698;50.232;30.540;2023-05-02T01:40:35;101293.37;;;8.94;53.21
49801;BME280;35698;50.232;30.540;2023-05-02T01:42:00;101295.55;;;8.81;53.24
49801;BME280;35698;50.232;30.540;2023-05-02T01:43:14;101296.11;;;8.91;53.28
49801;BME280;35698;50.232;30.540;2023-05-02T01:44:37;101292.97;;;8.79;53.28
49801;BME280;35698;50.232;30.540;2023-05-02T01:45:49;101296.11;;;8.91;53.41
49801;BME280;35698;50.232;30.540;2023-05-02T01:47:12;101301.94;;;8.74;53.55
49801;BME280;35698;50.232;30.540;2023-05-02T01:48:18;101293.83;;;8.80;53.41
49801;BME280;35698;50.232;30.540;2023-05-02T01:49:32;101304.36;;;8.80;53.53
49801;BME280;35698;50.232;30.540;2023-05-02T01:50:37;101306.29;;;8.75;53.51
49801;BME280;35698;50.232;30.540;2023-05-02T01:51:45;101302.75;;;8.76;53.58
49801;BME280;35698;50.232;30.540;2023-05-02T01:52:52;101294.89;;;8.74;53.56
49801;BME280;35698;50.232;30.540;2023-05-02T01:54:07;101296.26;;;8.86;53.60
49801;BME280;35698;50.232;30.540;2023-05-02T01:55:13;101297.52;;;8.74;53.69
49801;BME280;35698;50.232;30.540;2023-05-02T01:56:26;101302.34;;;8.88;53.70
49801;BME280;35698;50.232;30.540;2023-05-02T01:57:31;101300.16;;;8.74;53.74
49801;BME280;35698;50.232;30.540;2023-05-02T01:58:44;101298.89;;;8.86;53.84
49801;BME280;35698;50.232;30.540;2023-05-02T01:59:49;101297.58;;;8.73;53.86
49801;BME280;35698;50.232;30.540;2023-05-02T02:01:11;101295.80;;;8.73;53.87
49801;BME280;35698;50.232;30.540;2023-05-02T02:02:15;101295.22;;;8.65;54.05
49801;BME280;35698;50.232;30.540;2023-05-02T02:03:29;101293.12;;;8.75;54.09
49801;BME280;35698;50.232;30.540;2023-05-02T02:04:35;101296.86;;;8.68;53.93
49801;BME280;35698;50.232;30.540;2023-05-02T02:05:58;101298.64;;;8.67;53.92
49801;BME280;35698;50.232;30.540;2023-05-02T02:07:12;101300.20;;;8.73;54.05
49801;BME280;35698;50.232;30.540;2023-05-02T02:08:16;101305.05;;;8.60;54.14
49801;BME280;35698;50.232;30.540;2023-05-02T02:09:37;101304.99;;;8.62;54.13
49801;BME280;35698;50.232;30.540;2023-05-02T02:10:51;101292.41;;;8.70;54.19
49801;BME280;35698;50.232;30.540;2023-05-02T02:12:07;101291.02;;;8.60;54.20
49801;BME280;35698;50.232;30.540;2023-05-02T02:13:33;101297.19;;;8.59;54.19
49801;BME280;35698;50.232;30.540;2023-05-02T02:14:47;101299.50;;;8.68;54.40
49801;BME280;35698;50.232;30.540;2023-05-02T02:15:52;101303.47;;;8.54;54.47
49801;BME280;35698;50.232;30.540;2023-05-02T02:17:24;101299.97;;;8.54;54.53
49801;BME280;35698;50.232;30.540;2023-05-02T02:18:37;101299.73;;;8.62;54.65
49801;BME280;35698;50.232;30.540;2023-05-02T02:19:41;101297.58;;;8.46;54.73
49801;BME280;35698;50.232;30.540;2023-05-02T02:21:08;101303.76;;;8.45;54.85
49801;BME280;35698;50.232;30.540;2023-05-02T02:22:23;101311.32;;;8.56;54.99
49801;BME280;35698;50.232;30.540;2023-05-02T02:23:29;101305.58;;;8.43;55.19
49801;BME280;35698;50.232;30.540;2023-05-02T02:24:52;101305.48;;;8.46;55.10
49801;BME280;35698;50.232;30.540;2023-05-02T02:25:57;101305.48;;;8.46;55.09
49801;BME280;35698;50.232;30.540;2023-05-02T02:27:00;101310.75;;;8.46;55.11
49801;BME280;35698;50.232;30.540;2023-05-02T02:28:11;101302.56;;;8.56;55.13
49801;BME280;35698;50.232;30.540;2023-05-02T02:29:14;101303.66;;;8.48;55.10
49801;BME280;35698;50.232;30.540;2023-05-02T02:30:26;101306.25;;;8.50;55.21
49801;BME280;35698;50.232;30.540;2023-05-02T02:31:31;101312.76;;;8.38;55.30
49801;BME280;35698;50.232;30.540;2023-05-02T02:32:42;101310.45;;;8.56;55.24
49801;BME280;35698;50.232;30.540;2023-05-02T02:33:46;101312.57;;;8.44;55.24
49801;BME280;35698;50.232;30.540;2023-05-02T02:34:58;101313.09;;;8.56;55.22
49801;BME280;35698;50.232;30.540;2023-05-02T02:37:28;101319.79;;;8.66;55.35
49801;BME280;35698;50.232;30.540;2023-05-02T02:38:49;101309.55;;;8.57;55.13
49801;BME280;35698;50.232;30.540;2023-05-02T02:41:17;101307.73;;;8.59;54.93
49801;BME280;35698;50.232;30.540;2023-05-02T02:42:36;101308.31;;;8.67;55.01
49801;BME280;35698;50.232;30.540;2023-05-02T02:44:03;101310.70;;;8.48;55.21
49801;BME280;35698;50.232;30.540;2023-05-02T02:49:35;101310.45;;;8.56;55.35
49801;BME280;35698;50.232;30.540;2023-05-02T02:52:10;101315.43;;;8.65;55.42
49801;BME280;35698;50.232;30.540;2023-05-02T02:54:44;101320.99;;;8.56;55.50
49801;BME280;35698;50.232;30.540;2023-05-02T02:56:11;101323.05;;;8.72;55.39
49801;BME280;35698;50.232;30.540;2023-05-02T03:00:40;101326.77;;;8.93;54.83
49801;BME280;35698;50.232;30.540;2023-05-02T03:03:34;101323.12;;;8.97;54.71
49801;BME280;35698;50.232;30.540;2023-05-02T03:04:40;101326.86;;;8.90;54.55
49801;BME280;35698;50.232;30.540;2023-05-02T03:05:45;101326.20;;;8.83;54.61
49801;BME280;35698;50.232;30.540;2023-05-02T03:06:51;101327.63;;;8.94;54.49
49801;BME280;35698;50.232;30.540;2023-05-02T03:08:03;101322.70;;;9.09;54.41
49801;BME280;35698;50.232;30.540;2023-05-02T03:09:14;101331.73;;;9.02;54.37
49801;BME280;35698;50.232;30.540;2023-05-02T03:10:26;101340.84;;;9.18;54.28
49801;BME280;35698;50.232;30.540;2023-05-02T03:11:29;101332.19;;;9.15;54.18
49801;BME280;35698;50.232;30.540;2023-05-02T03:12:51;101337.35;;;9.18;54.09
49801;BME280;35698;50.232;30.540;2023-05-02T03:13:54;101337.25;;;9.21;54.13
49801;BME280;35698;50.232;30.540;2023-05-02T03:16:41;101341.08;;;9.37;54.07
49801;BME280;35698;50.232;30.540;2023-05-02T03:18:03;101339.20;;;9.41;53.95
49801;BME280;35698;50.232;30.540;2023-05-02T03:19:14;101341.00;;;9.64;53.72
49801;BME280;35698;50.232;30.540;2023-05-02T03:20:17;101342.18;;;9.55;53.58
49801;BME280;35698;50.232;30.540;2023-05-02T03:21:39;101345.63;;;9.57;53.72
49801;BME280;35698;50.232;30.540;2023-05-02T03:22:45;101345.35;;;9.65;53.70
49801;BME280;35698;50.232;30.540;2023-05-02T03:24:07;101347.83;;;9.69;53.51
49801;BME280;35698;50.232;30.540;2023-05-02T03:25:18;101341.08;;;9.85;53.63
49801;BME280;35698;50.232;30.540;2023-05-02T03:26:21;101348.41;;;9.77;53.56
49801;BME280;35698;50.232;30.540;2023-05-02T03:27:42;101345.55;;;9.83;53.60
49801;BME280;35698;50.232;30.540;2023-05-02T03:28:54;101344.19;;;9.97;53.60
49801;BME280;35698;50.232;30.540;2023-05-02T03:29:58;101354.16;;;9.89;53.60
49801;BME280;35698;50.232;30.540;2023-05-02T03:31:19;101350.55;;;9.91;53.56
49801;BME280;35698;50.232;30.540;2023-05-02T03:32:31;101355.44;;;10.02;53.54
49801;BME280;35698;50.232;30.540;2023-05-02T03:33:34;101351.30;;;9.95;53.46
49801;BME280;35698;50.232;30.540;2023-05-02T03:34:55;101351.13;;;9.99;53.35
49801;BME280;35698;50.232;30.540;2023-05-02T03:36:02;101349.18;;;10.04;53.25
49801;BME280;35698;50.232;30.540;2023-05-02T03:37:23;101357.79;;;10.09;53.19
49801;BME280;35698;50.232;30.540;2023-05-02T03:38:28;101355.78;;;10.16;53.28
49801;BME280;35698;50.232;30.540;2023-05-02T03:39:46;101364.02;;;10.32;53.06
49801;BME280;35698;50.232;30.540;2023-05-02T03:40:49;101361.84;;;10.20;52.97
49801;BME280;35698;50.232;30.540;2023-05-02T03:42:01;101359.59;;;10.32;52.88
49801;BME280;35698;50.232;30.540;2023-05-02T03:43:04;101360.75;;;10.25;52.88
49801;BME280;35698;50.232;30.540;2023-05-02T03:44:07;101365.86;;;10.30;52.95
49801;BME280;35698;50.232;30.540;2023-05-02T03:45:10;101364.88;;;10.32;53.01
49801;BME280;35698;50.232;30.540;2023-05-02T03:46:22;101365.00;;;10.51;53.20
49801;BME280;35698;50.232;30.540;2023-05-02T03:47:25;101375.86;;;10.43;53.12
49801;BME280;35698;50.232;30.540;2023-05-02T03:48:37;101366.42;;;10.60;53.07
49801;BME280;35698;50.232;30.540;2023-05-02T03:49:40;101372.86;;;10.53;53.20
49801;BME280;35698;50.232;30.540;2023-05-02T03:50:51;101373.92;;;10.70;53.29
49801;BME280;35698;50.232;30.540;2023-05-02T03:51:54;101376.87;;;10.63;53.28
49801;BME280;35698;50.232;30.540;2023-05-02T03:53:01;101377.43;;;10.71;53.20
49801;BME280;35698;50.232;30.540;2023-05-02T03:54:12;101375.09;;;10.85;53.10
49801;BME280;35698;50.232;30.540;2023-05-02T03:55:15;101374.60;;;10.75;53.17
49801;BME280;35698;50.232;30.540;2023-05-02T03:56:27;101378.48;;;10.89;52.91
49801;BME280;35698;50.232;30.540;2023-05-02T03:57:30;101381.48;;;10.79;52.83
49801;BME280;35698;50.232;30.540;2023-05-02T03:58:34;101378.54;;;10.87;52.93
49801;BME280;35698;50.232;30.540;2023-05-02T03:59:45;101377.06;;;11.02;52.98
49801;BME280;35698;50.232;30.540;2023-05-02T04:00:49;101380.75;;;10.98;52.93
49801;BME280;35698;50.232;30.540;2023-05-02T04:01:59;101391.38;;;11.18;53.07
49801;BME280;35698;50.232;30.540;2023-05-02T04:03:03;101380.98;;;11.13;53.03
49801;BME280;35698;50.232;30.540;2023-05-02T04:04:06;101385.16;;;11.19;53.00
49801;BME280;35698;50.232;30.540;2023-05-02T04:05:09;101389.11;;;11.29;52.95
49801;BME280;35698;50.232;30.540;2023-05-02T04:06:13;101385.28;;;11.36;52.84
49801;BME280;35698;50.232;30.540;2023-05-02T04:07:16;101387.67;;;11.42;52.78
49801;BME280;35698;50.232;30.540;2023-05-02T04:08:28;101390.39;;;11.61;52.48
49801;BME280;35698;50.232;30.540;2023-05-02T04:09:31;101394.22;;;11.54;52.50
49801;BME280;35698;50.232;30.540;2023-05-02T04:10:42;101389.99;;;11.70;52.39
49801;BME280;35698;50.232;30.540;2023-05-02T04:11:45;101396.41;;;11.65;52.29
49801;BME280;35698;50.232;30.540;2023-05-02T04:12:57;101391.94;;;11.87;52.20
49801;BME280;35698;50.232;30.540;2023-05-02T04:14:00;101386.84;;;11.83;52.10
49801;BME280;35698;50.232;30.540;2023-05-02T04:15:07;101391.94;;;11.87;52.05
49801;BME280;35698;50.232;30.540;2023-05-02T04:16:18;101389.46;;;12.03;52.01
49801;BME280;35698;50.232;30.540;2023-05-02T04:17:22;101395.69;;;12.02;51.98
49801;BME280;35698;50.232;30.540;2023-05-02T04:18:33;101391.39;;;12.18;51.89
49801;BME280;35698;50.232;30.540;2023-05-02T04:19:36;101392.45;;;12.14;51.74
49801;BME280;35698;50.232;30.540;2023-05-02T04:20:42;101394.83;;;12.20;51.68
49801;BME280;35698;50.232;30.540;2023-05-02T04:21:53;101393.13;;;12.38;51.41
49801;BME280;35698;50.232;30.540;2023-05-02T04:22:56;101391.55;;;12.34;51.11
49801;BME280;35698;50.232;30.540;2023-05-02T04:24:00;101387.75;;;12.39;51.06
49801;BME280;35698;50.232;30.540;2023-05-02T04:25:21;101391.91;;;12.45;50.90
49801;BME280;35698;50.232;30.540;2023-05-02T04:26:24;101382.37;;;12.60;50.47
49801;BME280;35698;50.232;30.540;2023-05-02T04:27:27;101385.45;;;12.69;50.38
49801;BME280;35698;50.232;30.540;2023-05-02T04:28:31;101384.16;;;12.78;50.50
49801;BME280;35698;50.232;30.540;2023-05-02T04:29:34;101387.30;;;12.86;50.42
49801;BME280;35698;50.232;30.540;2023-05-02T04:30:47;101389.80;;;13.06;50.05
49801;BME280;35698;50.232;30.540;2023-05-02T04:31:50;101392.76;;;13.00;49.89
49801;BME280;35698;50.232;30.540;2023-05-02T04:33:02;101392.67;;;13.21;49.96
49801;BME280;35698;50.232;30.540;2023-05-02T04:34:06;101390.28;;;13.14;49.93
49801;BME280;35698;50.232;30.540;2023-05-02T04:35:09;101394.46;;;13.20;49.88
49801;BME280;35698;50.232;30.540;2023-05-02T04:36:30;101395.80;;;13.29;49.63
49801;BME280;35698;50.232;30.540;2023-05-02T04:37:33;101396.34;;;13.35;49.20
49801;BME280;35698;50.232;30.540;2023-05-02T04:38:37;101392.45;;;13.42;48.46
49801;BME280;35698;50.232;30.540;2023-05-02T04:39:40;101397.37;;;13.50;48.01
49801;BME280;35698;50.232;30.540;2023-05-02T04:40:51;101400.09;;;13.66;47.31
49801;BME280;35698;50.232;30.540;2023-05-02T04:41:54;101398.70;;;13.59;47.39
49801;BME280;35698;50.232;30.540;2023-05-02T04:43:06;101403.14;;;13.75;46.94
49801;BME280;35698;50.232;30.540;2023-05-02T04:44:09;101397.13;;;13.72;47.09
49801;BME280;35698;50.232;30.540;2023-05-02T04:45:30;101407.19;;;13.83;46.97
49801;BME280;35698;50.232;30.540;2023-05-02T04:46:52;101400.67;;;13.88;46.86
49801;BME280;35698;50.232;30.540;2023-05-02T04:47:56;101405.74;;;13.93;46.88
49801;BME280;35698;50.232;30.540;2023-05-02T04:49:07;101401.17;;;14.12;46.64
49801;BME280;35698;50.232;30.540;2023-05-02T04:50:10;101400.48;;;14.08;46.47
49801;BME280;35698;50.232;30.540;2023-05-02T04:51:32;101402.03;;;14.13;46.21
49801;BME280;35698;50.232;30.540;2023-05-02T04:52:43;101402.92;;;14.29;46.20
49801;BME280;35698;50.232;30.540;2023-05-02T04:53:46;101398.80;;;14.23;46.42
49801;BME280;35698;50.232;30.540;2023-05-02T04:55:08;101407.22;;;14.31;46.65
49801;BME280;35698;50.232;30.540;2023-05-02T04:56:12;101406.72;;;14.40;46.57
49801;BME280;35698;50.232;30.540;2023-05-02T04:57:15;101405.39;;;14.49;46.67
49801;BME280;35698;50.232;30.540;2023-05-02T04:58:29;101401.54;;;14.70;46.52
49801;BME280;35698;50.232;30.540;2023-05-02T04:59:33;101409.77;;;14.66;46.54
49801;BME280;35698;50.232;30.540;2023-05-02T05:00:54;101411.03;;;14.74;46.51
49801;BME280;35698;50.232;30.540;2023-05-02T05:02:07;101406.22;;;14.97;46.02
49801;BME280;35698;50.232;30.540;2023-05-02T05:03:11;101405.70;;;14.90;45.67
49801;BME280;35698;50.232;30.540;2023-05-02T05:04:32;101405.36;;;14.96;45.53
49801;BME280;35698;50.232;30.540;2023-05-02T05:05:54;101401.49;;;15.02;45.27
49801;BME280;35698;50.232;30.540;2023-05-02T05:06:57;101405.78;;;15.04;44.89
49801;BME280;35698;50.232;30.540;2023-05-02T05:08:08;101399.48;;;15.21;44.44
49801;BME280;35698;50.232;30.540;2023-05-02T05:09:12;101399.93;;;15.14;44.03
49801;BME280;35698;50.232;30.540;2023-05-02T05:10:33;101402.23;;;15.20;44.33
49801;BME280;35698;50.232;30.540;2023-05-02T05:11:54;101407.89;;;15.29;44.41
49801;BME280;35698;50.232;30.540;2023-05-02T05:13:05;101403.97;;;15.51;44.10
49801;BME280;35698;50.232;30.540;2023-05-02T05:14:08;101409.56;;;15.46;43.12
49801;BME280;35698;50.232;30.540;2023-05-02T05:15:19;101409.33;;;15.65;42.36
49801;BME280;35698;50.232;30.540;2023-05-02T05:16:23;101409.61;;;15.60;42.18
49801;BME280;35698;50.232;30.540;2023-05-02T05:17:34;101408.59;;;15.77;42.07
49801;BME280;35698;50.232;30.540;2023-05-02T05:18:37;101408.96;;;15.71;41.90
49801;BME280;35698;50.232;30.540;2023-05-02T05:19:48;101408.80;;;15.88;41.39
49801;BME280;35698;50.232;30.540;2023-05-02T05:20:51;101406.69;;;15.79;41.23
49801;BME280;35698;50.232;30.540;2023-05-02T05:22:02;101410.23;;;15.94;41.44
49801;BME280;35698;50.232;30.540;2023-05-02T05:23:05;101412.42;;;15.87;41.74
49801;BME280;35698;50.232;30.540;2023-05-02T05:24:16;101419.01;;;16.10;41.67
49801;BME280;35698;50.232;30.540;2023-05-02T05:25:20;101422.72;;;16.08;41.62
49801;BME280;35698;50.232;30.540;2023-05-02T05:26:30;101417.49;;;16.20;41.26
49801;BME280;35698;50.232;30.540;2023-05-02T05:27:35;101410.45;;;16.19;41.62
49801;BME280;35698;50.232;30.540;2023-05-02T05:28:46;101418.06;;;16.39;41.75
49801;BME280;35698;50.232;30.540;2023-05-02T05:29:49;101411.20;;;16.35;41.80
49801;BME280;35698;50.232;30.540;2023-05-02T05:30:52;101406.34;;;16.42;41.61
49801;BME280;35698;50.232;30.540;2023-05-02T05:32:06;101401.72;;;16.58;41.04
49801;BME280;35698;50.232;30.540;2023-05-02T05:33:09;101409.35;;;16.50;40.62
49801;BME280;35698;50.232;30.540;2023-05-02T05:34:20;101399.45;;;16.66;40.28
49801;BME280;35698;50.232;30.540;2023-05-02T05:35:24;101404.29;;;16.60;40.35
49801;BME280;35698;50.232;30.540;2023-05-02T05:36:27;101405.73;;;16.51;40.34
49801;BME280;35698;50.232;30.540;2023-05-02T05:37:30;101406.39;;;16.55;40.69
49801;BME280;35698;50.232;30.540;2023-05-02T05:38:34;101403.23;;;16.62;40.42
49801;BME280;35698;50.232;30.540;2023-05-02T05:39:47;101401.23;;;16.80;40.27
49801;BME280;35698;50.232;30.540;2023-05-02T05:40:50;101403.05;;;16.80;40.35
49801;BME280;35698;50.232;30.540;2023-05-02T05:42:01;101400.48;;;17.05;40.21
49801;BME280;35698;50.232;30.540;2023-05-02T05:43:05;101408.14;;;16.97;40.15
49801;BME280;35698;50.232;30.540;2023-05-02T05:44:15;101408.65;;;17.16;39.59
49801;BME280;35698;50.232;30.540;2023-05-02T05:45:19;101413.33;;;17.13;40.11
49801;BME280;35698;50.232;30.540;2023-05-02T05:46:30;101406.23;;;17.38;38.88
49801;BME280;35698;50.232;30.540;2023-05-02T05:47:33;101405.58;;;17.35;38.71
49801;BME280;35698;50.232;30.540;2023-05-02T05:48:54;101402.59;;;17.40;38.46
49801;BME280;35698;50.232;30.540;2023-05-02T05:50:06;101399.54;;;17.58;38.37
49801;BME280;35698;50.232;30.540;2023-05-02T05:51:09;101405.95;;;17.56;38.33
49801;BME280;35698;50.232;30.540;2023-05-02T05:52:31;101402.84;;;17.49;37.49
49801;BME280;35698;50.232;30.540;2023-05-02T05:53:41;101398.73;;;17.71;37.13
49801;BME280;35698;50.232;30.540;2023-05-02T05:54:45;101398.38;;;17.62;37.44
49801;BME280;35698;50.232;30.540;2023-05-02T05:56:11;101396.70;;;17.74;37.24
49801;BME280;35698;50.232;30.540;2023-05-02T05:57:33;101398.96;;;17.80;36.73
49801;BME280;35698;50.232;30.540;2023-05-02T05:58:44;101399.28;;;18.01;36.63
49801;BME280;35698;50.232;30.540;2023-05-02T05:59:55;101400.57;;;18.08;35.78
49801;BME280;35698;50.232;30.540;2023-05-02T06:01:07;101398.43;;;18.13;35.79
49801;BME280;35698;50.232;30.540;2023-05-02T06:02:28;101402.28;;;18.09;35.20
49801;BME280;35698;50.232;30.540;2023-05-02T06:03:49;101402.50;;;18.06;35.00
49801;BME280;35698;50.232;30.540;2023-05-02T06:05:11;101395.75;;;18.13;35.03
49801;BME280;35698;50.232;30.540;2023-05-02T06:06:22;101399.55;;;18.34;34.90
49801;BME280;35698;50.232;30.540;2023-05-02T06:07:43;101396.98;;;18.33;35.10
49801;BME280;35698;50.232;30.540;2023-05-02T06:09:05;101396.97;;;18.46;35.31
49801;BME280;35698;50.232;30.540;2023-05-02T06:10:26;101400.16;;;18.51;34.78
49801;BME280;35698;50.232;30.540;2023-05-02T06:11:37;101407.02;;;18.68;33.98
49801;BME280;35698;50.232;30.540;2023-05-02T06:12:59;101396.94;;;18.71;34.24
49801;BME280;35698;50.232;30.540;2023-05-02T06:14:20;101399.91;;;18.79;34.21
49801;BME280;35698;50.232;30.540;2023-05-02T06:15:41;101397.30;;;18.90;33.94
49801;BME280;35698;50.232;30.540;2023-05-02T06:16:47;101403.51;;;18.91;33.42
49801;BME280;35698;50.232;30.540;2023-05-02T06:17:59;101396.64;;;19.11;33.73
49801;BME280;35698;50.232;30.540;2023-05-02T06:19:20;101395.91;;;19.09;34.23
49801;BME280;35698;50.232;30.540;2023-05-02T06:20:34;101393.67;;;19.26;33.00
49801;BME280;35698;50.232;30.540;2023-05-02T06:21:56;101403.48;;;19.15;32.32
49801;BME280;35698;50.232;30.540;2023-05-02T06:22:59;101393.63;;;19.15;32.26
49801;BME280;35698;50.232;30.540;2023-05-02T06:24:10;101398.96;;;19.39;32.32
49801;BME280;35698;50.232;30.540;2023-05-02T06:25:31;101401.52;;;19.41;32.79
49801;BME280;35698;50.232;30.540;2023-05-02T06:26:49;101400.31;;;19.69;32.01
49801;BME280;35698;50.232;30.540;2023-05-02T06:28:10;101407.84;;;19.63;31.87
49801;BME280;35698;50.232;30.540;2023-05-02T06:29:29;101397.30;;;19.84;31.42
49801;BME280;35698;50.232;30.540;2023-05-02T06:30:58;101400.22;;;19.81;31.96
49801;BME280;35698;50.232;30.540;2023-05-02T06:32:19;101388.88;;;20.00;31.10
49801;BME280;35698;50.232;30.540;2023-05-02T06:52:51;101397.28;;;19.95;31.50
49801;BME280;35698;50.232;30.540;2023-05-02T06:54:02;101392.20;;;20.59;28.89
49801;BME280;35698;50.232;30.540;2023-05-02T06:55:06;101395.98;;;20.57;28.39
49801;BME280;35698;50.232;30.540;2023-05-02T06:56:20;101394.11;;;20.80;27.67
49801;BME280;35698;50.232;30.540;2023-05-02T06:57:24;101402.92;;;20.71;27.45
49801;BME280;35698;50.232;30.540;2023-05-02T06:58:44;101405.52;;;20.93;27.45